Terminal Aerodrome Forecast
Issued by NWS

Home | Current Version | Previous Version | Graphics & Text | Print | Product List | Glossary On
Versions: 1 2 3 4 5 6 7 8 9 10 11 12 13 14
000
FTUS43 KMPX 181732
TAFRWF
TAF
KRWF 181732Z 1818/1918 32018G26KT P6SM SCT035
     FM182100 32015G24KT P6SM SKC
     FM190200 31011KT P6SM SKC
     FM190700 29007KT P6SM SCT250
     FM191400 23007KT P6SM BKN250=

USA.gov is the U.S. government's official web portal to all federal, state and local government web resources and services.